createdAt,value
2023-05-25T00:02:16.298Z,1.60
2023-05-25T00:04:43.894Z,1.20
2023-05-25T00:07:12.877Z,1.90
2023-05-25T00:09:41.807Z,1.40
2023-05-25T00:12:21.899Z,1.48
2023-05-25T00:14:49.672Z,1.83
2023-05-25T00:17:18.796Z,1.40
2023-05-25T00:19:46.550Z,1.08
2023-05-25T00:22:15.561Z,1.35
2023-05-25T00:24:43.181Z,1.10
2023-05-25T00:27:10.789Z,1.23
2023-05-25T00:29:38.374Z,1.25
2023-05-25T00:32:06.858Z,1.48
2023-05-25T00:34:34.430Z,1.20
2023-05-25T00:37:01.995Z,1.42
2023-05-25T00:39:30.930Z,1.20
2023-05-25T00:41:59.998Z,1.30
2023-05-25T00:44:28.874Z,1.25
2023-05-25T00:46:56.579Z,1.17
2023-05-25T00:49:24.315Z,1.17
2023-05-25T00:51:53.421Z,1.98
2023-05-25T00:54:21.833Z,1.08
2023-05-25T00:56:53.060Z,1.15
2023-05-25T00:59:27.894Z,1.15
2023-05-25T01:01:57.361Z,1.13
2023-05-25T01:04:28.356Z,1.55
2023-05-25T01:06:58.557Z,1.25
2023-05-25T01:09:29.125Z,1.00
2023-05-25T01:12:00.187Z,1.25
2023-05-25T01:14:29.037Z,1.20
2023-05-25T01:16:58.887Z,1.02
2023-05-25T01:19:26.516Z,1.90
2023-05-25T01:22:02.172Z,1.20
2023-05-25T01:24:40.785Z,1.15
2023-05-25T01:27:13.668Z,1.55
2023-05-25T01:29:44.172Z,1.10
2023-05-25T01:32:13.790Z,1.10
2023-05-25T01:34:44.233Z,1.08
2023-05-25T01:37:14.382Z,1.10
2023-05-25T01:39:42.204Z,1.08
2023-05-25T01:42:09.790Z,1.17
2023-05-25T01:44:38.347Z,1.25
2023-05-25T01:47:11.250Z,1.10
2023-05-25T01:49:45.447Z,1.25
2023-05-25T01:52:22.837Z,1.17
2023-05-25T01:54:55.482Z,1.20
2023-05-25T01:57:23.834Z,0.95
2023-05-25T01:59:55.743Z,1.33
2023-05-25T02:02:24.299Z,1.20
2023-05-25T02:04:54.720Z,1.10
2023-05-25T02:07:24.184Z,1.23
2023-05-25T02:09:52.068Z,0.90
2023-05-25T02:12:19.766Z,0.90
2023-05-25T02:14:48.735Z,1.10
2023-05-25T02:17:17.896Z,1.10
2023-05-25T02:19:45.701Z,1.30
2023-05-25T02:22:13.423Z,1.25
2023-05-25T02:24:42.358Z,0.85
2023-05-25T02:27:12.667Z,1.40
2023-05-25T02:29:40.462Z,1.02
2023-05-25T02:32:08.557Z,1.25
2023-05-25T02:34:36.112Z,1.30
2023-05-25T02:37:03.748Z,0.95
2023-05-25T02:39:31.337Z,1.42
2023-05-25T02:42:01.201Z,1.10
2023-05-25T02:44:28.783Z,1.33
2023-05-25T02:46:56.420Z,1.08
2023-05-25T02:49:24.072Z,1.40
2023-05-25T02:51:51.635Z,1.20
2023-05-25T02:54:19.205Z,1.30
2023-05-25T02:56:46.847Z,1.30
2023-05-25T02:59:15.821Z,1.33
2023-05-25T03:01:43.486Z,1.17
2023-05-25T03:04:11.332Z,1.30
2023-05-25T03:06:38.934Z,1.50
2023-05-25T03:09:07.202Z,1.40
2023-05-25T03:11:34.846Z,1.40
2023-05-25T03:14:02.447Z,1.27
2023-05-25T03:16:31.572Z,1.23
2023-05-25T03:18:59.232Z,1.10
2023-05-25T03:21:27.724Z,1.33
2023-05-25T03:23:55.398Z,1.23
2023-05-25T03:26:23.003Z,1.00
2023-05-25T03:28:50.763Z,1.17
2023-05-25T03:31:18.734Z,0.82
2023-05-25T03:33:47.637Z,1.15
2023-05-25T03:36:17.266Z,0.90
2023-05-25T03:38:45.489Z,1.27
2023-05-25T03:41:13.056Z,0.90
2023-05-25T03:43:40.615Z,0.88
2023-05-25T03:46:10.043Z,0.73
2023-05-25T03:48:37.675Z,0.80
2023-05-25T03:51:06.696Z,1.17
2023-05-25T03:53:34.265Z,0.90
2023-05-25T03:56:01.914Z,1.00
2023-05-25T03:58:29.518Z,0.95
2023-05-25T04:00:57.140Z,1.00
2023-05-25T04:03:24.893Z,0.70
2023-05-25T04:05:52.576Z,1.08
2023-05-25T04:08:22.501Z,0.90
2023-05-25T04:10:50.096Z,0.90
2023-05-25T04:13:17.628Z,1.10
2023-05-25T04:15:45.417Z,0.80
2023-05-25T04:18:13.345Z,1.48
2023-05-25T04:20:41.561Z,0.93
2023-05-25T04:23:09.221Z,0.90
2023-05-25T04:25:38.791Z,1.08
2023-05-25T04:28:08.315Z,1.35
2023-05-25T04:30:36.575Z,1.02
2023-05-25T04:33:04.545Z,1.08
2023-05-25T04:35:32.498Z,0.77
2023-05-25T04:38:02.656Z,1.20
2023-05-25T04:40:30.248Z,1.50
2023-05-25T04:42:59.188Z,0.80
2023-05-25T04:45:27.425Z,0.90
2023-05-25T04:47:56.499Z,1.27
2023-05-25T04:50:24.376Z,0.60
2023-05-25T04:52:51.945Z,1.00
2023-05-25T04:55:19.498Z,0.95
2023-05-25T04:57:47.228Z,1.30
2023-05-25T05:00:17.331Z,1.00
2023-05-25T05:02:45.047Z,0.70
2023-05-25T05:05:12.741Z,0.65
2023-05-25T05:07:40.786Z,0.73
2023-05-25T05:10:09.417Z,0.90
2023-05-25T05:12:37.025Z,0.95
2023-05-25T05:15:05.252Z,1.02
2023-05-25T05:17:34.276Z,0.82
2023-05-25T05:20:01.968Z,0.77
2023-05-25T05:22:29.613Z,0.88
2023-05-25T05:24:57.272Z,1.23
2023-05-25T05:27:26.123Z,1.20
2023-05-25T05:29:53.787Z,0.90
2023-05-25T05:32:21.360Z,0.93
2023-05-25T05:34:51.161Z,1.33
2023-05-25T05:37:18.740Z,0.85
2023-05-25T05:39:46.353Z,0.90
2023-05-25T05:42:14.023Z,1.05
2023-05-25T05:44:41.585Z,0.68
2023-05-25T05:47:09.157Z,1.17
2023-05-25T05:49:38.178Z,0.80
2023-05-25T05:52:09.495Z,1.55
2023-05-25T05:57:06.414Z,1.55
2023-05-25T05:59:34.022Z,1.27
2023-05-25T06:02:01.748Z,1.77
2023-05-25T06:04:29.432Z,1.33
2023-05-25T06:06:57.013Z,1.17
2023-05-25T06:09:26.418Z,1.60
2023-05-25T06:11:54.648Z,1.27
2023-05-25T06:14:22.222Z,1.17
2023-05-25T06:16:51.065Z,1.00
2023-05-25T06:19:18.734Z,1.60
2023-05-25T06:21:46.337Z,1.30
2023-05-25T06:24:16.265Z,1.13
2023-05-25T06:26:45.197Z,1.02
2023-05-25T06:29:14.265Z,0.95
2023-05-25T06:31:43.788Z,1.20
2023-05-25T06:34:11.417Z,1.17
2023-05-25T06:36:39.324Z,0.95
2023-05-25T06:39:07.109Z,1.10
2023-05-25T06:41:34.751Z,1.00
2023-05-25T06:44:03.663Z,1.00
2023-05-25T06:46:31.849Z,1.17
2023-05-25T06:49:00.058Z,1.15
2023-05-25T06:51:27.967Z,1.17
2023-05-25T06:53:56.233Z,1.02
2023-05-25T06:56:24.287Z,1.42
2023-05-25T06:58:52.033Z,0.98
2023-05-25T07:01:21.220Z,1.48
2023-05-25T07:03:48.824Z,1.60
2023-05-25T07:06:17.059Z,1.00
2023-05-25T07:08:44.718Z,0.85
2023-05-25T07:11:14.075Z,1.17
2023-05-25T07:13:41.778Z,1.42
2023-05-25T07:16:09.399Z,1.08
2023-05-25T07:18:41.851Z,1.45
2023-05-25T07:21:10.508Z,1.17
2023-05-25T07:23:38.414Z,1.20
2023-05-25T07:26:06.404Z,1.23
2023-05-25T07:28:34.128Z,1.17
2023-05-25T07:31:01.862Z,0.88
2023-05-25T07:33:29.430Z,1.15
2023-05-25T07:35:58.348Z,1.17
2023-05-25T07:38:25.960Z,1.15
2023-05-25T07:40:53.531Z,1.00
2023-05-25T07:43:21.253Z,1.08
2023-05-25T07:45:48.894Z,1.08
2023-05-25T07:48:16.546Z,1.20
2023-05-25T07:50:44.244Z,1.92
2023-05-25T07:53:13.190Z,0.95
2023-05-25T07:55:40.977Z,1.25
2023-05-25T07:58:08.519Z,1.52
2023-05-25T08:00:36.300Z,1.33
2023-05-25T08:03:04.618Z,1.33
2023-05-25T08:05:32.401Z,1.42
2023-05-25T08:07:59.973Z,1.40
2023-05-25T08:10:32.035Z,2.15
2023-05-25T08:13:00.090Z,1.35
2023-05-25T08:15:27.719Z,1.10
2023-05-25T08:17:56.367Z,1.63
2023-05-25T08:20:25.118Z,1.48
2023-05-25T08:22:54.484Z,1.25
2023-05-25T08:25:22.241Z,0.98
2023-05-25T08:27:51.196Z,1.92
2023-05-25T08:30:18.958Z,2.20
2023-05-25T08:32:47.124Z,1.52
2023-05-25T08:35:15.063Z,1.83
2023-05-25T08:37:43.341Z,2.42
2023-05-25T08:40:17.047Z,1.20
2023-05-25T08:42:44.923Z,1.33
2023-05-25T08:45:26.559Z,1.33
2023-05-25T08:48:04.254Z,1.55
2023-05-25T08:50:33.445Z,1.33
2023-05-25T08:53:04.199Z,1.52
2023-05-25T08:55:36.469Z,2.25
2023-05-25T08:58:11.136Z,1.73
2023-05-25T09:00:45.654Z,1.80
2023-05-25T09:03:17.879Z,1.40
2023-05-25T09:05:46.591Z,1.05
2023-05-25T09:08:14.850Z,1.45
2023-05-25T09:10:43.057Z,1.23
2023-05-25T09:13:21.510Z,1.00
2023-05-25T09:15:52.896Z,1.50
2023-05-25T09:18:20.649Z,2.33
2023-05-25T09:20:48.396Z,0.90
2023-05-25T09:23:16.133Z,1.35
2023-05-25T09:25:45.328Z,2.38
2023-05-25T09:28:26.446Z,1.17
2023-05-25T09:30:57.109Z,1.85
2023-05-25T09:33:24.698Z,1.33
2023-05-25T09:35:52.516Z,1.42
2023-05-25T09:38:20.784Z,2.45
2023-05-25T09:40:48.983Z,1.42
2023-05-25T09:43:28.405Z,0.90
2023-05-25T09:46:01.746Z,1.48
2023-05-25T09:48:30.264Z,1.55
2023-05-25T09:50:57.987Z,2.20
2023-05-25T09:53:25.570Z,1.15
2023-05-25T09:55:54.428Z,0.95
2023-05-25T09:58:23.660Z,1.10
2023-05-25T10:00:54.470Z,2.25
2023-05-25T10:03:23.526Z,1.17
2023-05-25T10:05:52.835Z,1.52
2023-05-25T10:08:21.460Z,1.08
2023-05-25T10:10:50.639Z,2.17
2023-05-25T10:13:22.714Z,1.25
2023-05-25T10:15:54.265Z,1.73
2023-05-25T10:18:26.723Z,1.45
2023-05-25T10:21:01.732Z,1.60
2023-05-25T10:23:34.121Z,1.20
2023-05-25T10:26:05.183Z,1.98
2023-05-25T10:28:37.618Z,1.27
2023-05-25T10:31:06.693Z,1.27
2023-05-25T10:33:35.883Z,1.15
2023-05-25T10:36:10.735Z,1.25
2023-05-25T10:38:41.825Z,1.35
2023-05-25T10:41:11.459Z,1.33
2023-05-25T10:43:40.632Z,0.95
2023-05-25T10:46:09.333Z,1.67
2023-05-25T10:48:39.313Z,1.48
2023-05-25T10:51:09.346Z,1.40
2023-05-25T10:53:39.460Z,1.58
2023-05-25T10:56:09.907Z,1.77
2023-05-25T10:58:42.523Z,1.52
2023-05-25T11:01:12.087Z,1.50
2023-05-25T11:03:52.237Z,1.13
2023-05-25T11:06:21.695Z,1.10
2023-05-25T11:08:50.977Z,1.10
2023-05-25T11:11:18.615Z,1.85
2023-05-25T11:13:47.096Z,1.25
2023-05-25T11:16:17.376Z,1.77
2023-05-25T11:18:46.875Z,1.38
2023-05-25T11:21:18.657Z,1.40
2023-05-25T11:23:57.015Z,1.38
2023-05-25T11:26:26.454Z,2.28
2023-05-25T11:28:54.885Z,1.40
2023-05-25T11:31:29.930Z,0.88
2023-05-25T11:33:58.681Z,1.10
2023-05-25T11:36:31.430Z,1.23
2023-05-25T11:39:06.653Z,1.70
2023-05-25T11:41:39.612Z,1.10
2023-05-25T11:44:08.035Z,1.13
2023-05-25T11:46:38.582Z,1.73
2023-05-25T11:49:06.322Z,1.08
2023-05-25T11:51:36.174Z,1.08
2023-05-25T11:54:03.789Z,1.67
2023-05-25T11:56:35.911Z,1.10
2023-05-25T11:59:08.640Z,1.58
2023-05-25T12:01:36.227Z,1.02
2023-05-25T12:04:09.751Z,1.00
2023-05-25T12:06:39.003Z,1.08
2023-05-25T12:09:12.275Z,1.10
2023-05-25T12:11:40.486Z,1.30
2023-05-25T12:14:08.644Z,1.90
2023-05-25T12:16:38.773Z,0.95
2023-05-25T12:19:07.631Z,1.55
2023-05-25T12:21:37.242Z,1.60
2023-05-25T12:24:07.612Z,2.25
2023-05-25T12:26:35.291Z,1.63
2023-05-25T12:29:04.833Z,1.25
2023-05-25T12:31:34.035Z,2.03
2023-05-25T12:34:10.226Z,1.70
2023-05-25T12:36:48.783Z,1.60
2023-05-25T12:39:33.818Z,2.42
2023-05-25T12:42:03.013Z,1.08
2023-05-25T12:44:32.171Z,1.17
2023-05-25T12:47:11.489Z,1.48
2023-05-25T12:49:40.099Z,1.08
2023-05-25T12:52:08.108Z,0.93
2023-05-25T12:54:49.544Z,1.85
2023-05-25T12:57:18.247Z,1.27
2023-05-25T12:59:47.860Z,0.95
2023-05-25T13:02:15.989Z,1.40
2023-05-25T13:04:44.441Z,1.35
2023-05-25T13:07:12.498Z,1.70
2023-05-25T13:09:41.443Z,1.40
2023-05-25T13:12:09.487Z,2.35
2023-05-25T13:14:37.116Z,1.70
2023-05-25T13:17:05.813Z,2.15
2023-05-25T13:19:33.417Z,1.58
2023-05-25T13:22:00.972Z,2.15
2023-05-25T13:24:28.589Z,2.08
2023-05-25T13:26:57.576Z,1.17
2023-05-25T13:29:25.610Z,1.45
2023-05-25T13:31:53.258Z,2.55
2023-05-25T13:34:20.891Z,1.40
2023-05-25T13:36:48.644Z,1.45
2023-05-25T13:39:16.256Z,1.23
2023-05-25T13:41:43.883Z,1.48
2023-05-25T13:44:16.558Z,1.95
2023-05-25T13:46:45.145Z,1.27
2023-05-25T13:49:15.103Z,1.42
2023-05-25T13:51:42.710Z,2.28
2023-05-25T13:54:12.612Z,1.90
2023-05-25T13:56:42.228Z,1.90
2023-05-25T13:59:10.033Z,2.25
2023-05-25T14:01:39.055Z,2.50
2023-05-25T14:04:06.822Z,2.28
2023-05-25T14:06:34.866Z,2.28
2023-05-25T14:09:02.643Z,2.85
2023-05-25T14:11:30.340Z,2.22
2023-05-25T14:13:57.934Z,2.10
2023-05-25T14:16:25.555Z,1.95
2023-05-25T14:18:55.639Z,3.75
2023-05-25T14:21:23.225Z,2.00
2023-05-25T14:23:50.774Z,1.95
2023-05-25T14:26:18.321Z,3.67
2023-05-25T14:28:45.935Z,1.70
2023-05-25T14:31:13.520Z,1.83
2023-05-25T14:33:42.970Z,2.20
2023-05-25T14:36:12.258Z,3.03
2023-05-25T14:38:39.827Z,2.40
2023-05-25T14:41:07.382Z,2.88
2023-05-25T14:43:35.541Z,2.63
2023-05-25T14:46:03.176Z,2.65
2023-05-25T14:48:30.833Z,2.47
2023-05-25T14:51:00.108Z,3.47
2023-05-25T14:53:29.130Z,1.88
2023-05-25T14:55:56.727Z,1.27
2023-05-25T14:58:24.296Z,1.67
2023-05-25T15:00:51.851Z,1.35
2023-05-25T15:03:19.673Z,1.30
2023-05-25T15:05:47.372Z,1.90
2023-05-25T15:08:15.117Z,2.03
2023-05-25T15:10:44.117Z,1.40
2023-05-25T15:13:13.377Z,1.77
2023-05-25T15:15:41.682Z,1.83
2023-05-25T15:18:09.484Z,2.00
2023-05-25T15:20:37.214Z,1.98
2023-05-25T15:23:04.795Z,1.58
2023-05-25T15:25:47.327Z,1.98
2023-05-25T15:28:16.287Z,1.77
2023-05-25T15:30:43.828Z,1.85
2023-05-25T15:33:11.405Z,1.85
2023-05-25T15:35:39.301Z,1.85
2023-05-25T15:38:07.156Z,2.42
2023-05-25T15:40:36.908Z,2.28
2023-05-25T15:43:04.513Z,2.22
2023-05-25T15:45:33.428Z,1.90
2023-05-25T15:48:00.990Z,1.90
2023-05-25T15:50:28.552Z,2.10
2023-05-25T15:52:56.400Z,2.63
2023-05-25T15:55:23.972Z,2.15
2023-05-25T15:57:51.513Z,1.63
2023-05-25T16:00:19.617Z,2.28
2023-05-25T16:02:48.562Z,2.42
2023-05-25T16:05:16.293Z,2.25
2023-05-25T16:07:43.868Z,2.22
2023-05-25T16:10:11.524Z,2.10
2023-05-25T16:12:39.090Z,2.53
2023-05-25T16:15:07.616Z,2.30
2023-05-25T16:17:35.255Z,2.20
2023-05-25T16:20:04.721Z,2.08
2023-05-25T16:22:32.477Z,2.15
2023-05-25T16:25:00.054Z,2.30
2023-05-25T16:27:27.678Z,2.42
2023-05-25T16:29:55.290Z,3.22
2023-05-25T16:32:22.906Z,2.53
2023-05-25T16:34:50.572Z,2.10
2023-05-25T16:37:19.493Z,2.15
2023-05-25T16:39:47.102Z,2.15
2023-05-25T16:42:14.657Z,1.83
2023-05-25T16:44:42.232Z,1.88
2023-05-25T16:47:09.854Z,1.90
2023-05-25T16:49:37.447Z,2.45
2023-05-25T16:52:05.349Z,2.97
2023-05-25T16:54:34.265Z,2.40
2023-05-25T16:57:03.062Z,3.15
2023-05-25T16:59:30.764Z,2.03
2023-05-25T17:01:59.058Z,2.80
2023-05-25T17:04:26.730Z,2.45
2023-05-25T17:06:54.368Z,2.58
2023-05-25T17:09:24.999Z,2.58
2023-05-25T17:11:54.183Z,2.35
2023-05-25T17:14:21.828Z,2.22
2023-05-25T17:16:49.468Z,2.58
2023-05-25T17:19:17.127Z,2.50
2023-05-25T17:21:44.803Z,2.97
2023-05-25T17:24:12.362Z,2.35
2023-05-25T17:26:40.012Z,1.92
2023-05-25T17:29:08.925Z,2.17
2023-05-25T17:31:36.554Z,2.45
2023-05-25T17:34:04.571Z,2.50
2023-05-25T17:36:32.160Z,2.88
2023-05-25T17:38:59.725Z,2.42
2023-05-25T17:41:27.565Z,2.40
2023-05-25T17:43:55.157Z,2.75
2023-05-25T17:46:24.144Z,2.40
2023-05-25T17:48:51.723Z,2.15
2023-05-25T17:51:19.362Z,2.70
2023-05-25T17:53:46.933Z,3.67
2023-05-25T17:56:14.525Z,3.80
2023-05-25T17:58:47.093Z,2.53
2023-05-25T18:01:15.175Z,3.30
2023-05-25T18:03:44.352Z,3.22
2023-05-25T18:06:11.991Z,3.50
2023-05-25T18:08:39.575Z,3.53
2023-05-25T18:11:07.191Z,3.80
2023-05-25T18:13:34.734Z,3.17
2023-05-25T18:16:02.278Z,3.17
2023-05-25T18:18:30.014Z,4.55
2023-05-25T18:20:59.302Z,3.75
2023-05-25T18:23:26.864Z,3.67
2023-05-25T18:25:54.576Z,4.07
2023-05-25T18:28:23.410Z,3.97
2023-05-25T18:30:51.029Z,3.97
2023-05-25T18:33:18.638Z,3.80
2023-05-25T18:35:46.558Z,3.80
2023-05-25T18:38:16.170Z,4.35
2023-05-25T18:40:43.778Z,4.30
2023-05-25T18:43:11.411Z,4.82
2023-05-25T18:45:38.983Z,4.00
2023-05-25T18:48:08.153Z,3.50
2023-05-25T18:50:35.811Z,4.10
2023-05-25T18:53:03.402Z,3.85
2023-05-25T18:55:32.401Z,3.15
2023-05-25T18:58:00.050Z,3.70
2023-05-25T19:00:27.698Z,3.97
2023-05-25T19:02:55.342Z,3.42
2023-05-25T19:05:24.218Z,2.85
2023-05-25T19:07:59.119Z,3.53
2023-05-25T19:10:27.553Z,3.80
2023-05-25T19:12:56.497Z,3.38
2023-05-25T19:15:24.104Z,2.92
2023-05-25T19:17:52.015Z,3.40
2023-05-25T19:20:19.742Z,4.05
2023-05-25T19:22:47.624Z,3.60
2023-05-25T19:25:15.263Z,3.13
2023-05-25T19:27:42.879Z,3.50
2023-05-25T19:30:12.601Z,3.10
2023-05-25T19:32:40.418Z,3.15
2023-05-25T19:35:08.455Z,3.22
2023-05-25T19:37:37.585Z,3.22
2023-05-25T19:40:06.304Z,3.25
2023-05-25T19:42:33.890Z,3.53
2023-05-25T19:45:01.454Z,4.10
2023-05-25T19:47:30.682Z,3.53
2023-05-25T19:49:58.260Z,3.70
2023-05-25T19:52:25.822Z,3.30
2023-05-25T19:54:53.478Z,3.53
2023-05-25T19:57:21.266Z,3.50
2023-05-25T19:59:50.026Z,3.70
2023-05-25T20:02:17.604Z,3.55
2023-05-25T20:04:46.602Z,3.30
2023-05-25T20:07:14.246Z,3.13
2023-05-25T20:09:42.804Z,3.10
2023-05-25T20:12:11.000Z,2.70
2023-05-25T20:14:38.621Z,3.47
2023-05-25T20:17:06.249Z,3.20
2023-05-25T20:19:33.871Z,3.35
2023-05-25T20:22:04.228Z,3.08
2023-05-25T20:24:32.595Z,2.90
2023-05-25T20:27:01.559Z,2.80
2023-05-25T20:29:29.115Z,2.70
2023-05-25T20:31:56.836Z,2.60
2023-05-25T20:34:24.590Z,2.65
2023-05-25T20:36:52.185Z,2.42
2023-05-25T20:39:21.112Z,3.67
2023-05-25T20:41:48.778Z,3.03
2023-05-25T20:44:16.420Z,2.70
2023-05-25T20:46:44.059Z,3.05
2023-05-25T20:49:11.681Z,2.58
2023-05-25T20:51:39.299Z,3.20
2023-05-25T20:54:07.151Z,2.42
2023-05-25T20:56:36.086Z,2.50
2023-05-25T20:59:03.624Z,2.67
2023-05-25T21:01:31.213Z,2.63
2023-05-25T21:03:59.067Z,2.85
2023-05-25T21:06:26.729Z,2.55
2023-05-25T21:08:54.361Z,2.70
2023-05-25T21:11:22.144Z,2.92
2023-05-25T21:13:51.212Z,2.90
2023-05-25T21:16:18.805Z,2.70
2023-05-25T21:18:46.379Z,2.65
2023-05-25T21:21:15.717Z,2.65
2023-05-25T21:23:43.299Z,2.80
2023-05-25T21:26:10.912Z,2.58
2023-05-25T21:28:38.520Z,2.22
2023-05-25T21:31:07.631Z,3.00
2023-05-25T21:33:37.434Z,3.10
2023-05-25T21:36:05.142Z,2.22
2023-05-25T21:38:32.748Z,2.30
2023-05-25T21:41:00.314Z,2.35
2023-05-25T21:43:28.256Z,2.47
2023-05-25T21:45:56.073Z,2.40
2023-05-25T21:48:25.314Z,2.75
2023-05-25T21:50:53.361Z,2.28
2023-05-25T21:53:21.297Z,2.28
2023-05-25T21:55:49.505Z,2.38
2023-05-25T21:58:18.722Z,2.38
2023-05-25T22:00:46.379Z,2.58
2023-05-25T22:03:14.292Z,2.40
2023-05-25T22:05:43.593Z,2.22
2023-05-25T22:08:11.355Z,2.22
2023-05-25T22:10:39.402Z,2.10
2023-05-25T22:13:07.139Z,2.40
2023-05-25T22:15:35.240Z,2.10
2023-05-25T22:18:02.996Z,1.88
2023-05-25T22:20:30.661Z,2.58
2023-05-25T22:22:59.837Z,2.72
2023-05-25T22:25:27.434Z,2.70
2023-05-25T22:27:55.003Z,2.08
2023-05-25T22:30:22.659Z,2.40
2023-05-25T22:32:50.303Z,2.38
2023-05-25T22:35:17.945Z,2.47
2023-05-25T22:37:45.604Z,2.38
2023-05-25T22:40:14.876Z,2.40
2023-05-25T22:42:43.214Z,2.17
2023-05-25T22:45:11.385Z,2.53
2023-05-25T22:47:39.028Z,2.10
2023-05-25T22:50:07.630Z,2.00
2023-05-25T22:52:35.264Z,2.80
2023-05-25T22:55:03.670Z,2.03
2023-05-25T22:57:32.609Z,2.70
2023-05-25T23:00:00.256Z,2.15
2023-05-25T23:02:27.887Z,2.15
2023-05-25T23:04:57.520Z,1.92
2023-05-25T23:07:25.061Z,2.42
2023-05-25T23:09:52.681Z,2.53
2023-05-25T23:12:20.258Z,2.00
2023-05-25T23:14:49.177Z,2.35
2023-05-25T23:17:16.751Z,1.95
2023-05-25T23:19:44.618Z,3.00
2023-05-25T23:22:12.371Z,2.47
2023-05-25T23:24:40.397Z,2.00
2023-05-25T23:27:08.072Z,1.90
2023-05-25T23:29:35.627Z,2.53
2023-05-25T23:32:04.892Z,2.20
2023-05-25T23:34:32.547Z,3.08
2023-05-25T23:37:00.430Z,2.28
2023-05-25T23:39:28.012Z,2.03
2023-05-25T23:41:55.673Z,2.28
2023-05-25T23:44:23.261Z,1.88
2023-05-25T23:46:51.619Z,2.50
2023-05-25T23:49:20.533Z,2.17
2023-05-25T23:51:48.160Z,1.80
2023-05-25T23:54:15.867Z,2.17
2023-05-25T23:56:43.511Z,2.65
2023-05-25T23:59:14.250Z,1.95
